Salem, OR (97305)

3:03 AM PST en Noviembre 26, 2014 (GMT -0800)
Central Howell | Change Station
CLOSE
Current Station
Estación meteorológica personal
Location: Silverton, OR
Altura: 217 ft
Estaciones meteorológicas cercanas

Alt 217 ft 44.99 °N, 122.87 °W | Updated 9 minutes ago

Nublado
Nublado
55.9 ° F
Sensación térmica 55.9 ° F
N
6.8
Viento Variable Viento desde OSO

Hoy
Alta -- | Baja -- ° F
--% Posibilidad de precipitaciones
Ayer
Alta -- | Baja -- ° F
Precip. -- pul
7:23 AM 4:33 PM
Creciente, 18% visible
Presión 30.27 pul
Visibilidad 10.0 Millas
Nubes Nublado 5000 ft
Punto de rocío 54 ° F
Humedad 94%
Precipitaciones 0.00 pul
Espesor de la nieve No disponible.
UV 0 de una escala de 12
Polen .10 de una escala de 12
Calidad del aire No disponible.
Flu Activity No disponible.
METAR KSLE 261056Z AUTO 18008KT 10SM OVC050 13/10 A3027 RMK AO2 SLP249 T01330100 $

More Conditions Fewer Conditions

Presión 30.27 pul
Visibilidad 10.0 Millas
Nubes Nublado 5000 ft
Punto de rocío 54 ° F
Humedad 94%
Precipitaciones 0.00 pul
Espesor de la nieve No disponible.
UV 0 de una escala de 12
Polen .10 de una escala de 12
Calidad del aire No disponible.
Flu Activity No disponible.
METAR KSLE 261056Z AUTO 18008KT 10SM OVC050 13/10 A3027 RMK AO2 SLP249 T01330100 $

More Conditions Fewer Conditions

10-Day Weather Forecast

Almanac

Astronomía

Nov. 26, 2014 Salida Puesta
Hora real
Crepúsculo civil
Crepúsculo náutico
Crepúsculo astronómico
Luna
Horas de luz
Horas de luz
Tomorrow will be .
, % of the Moon is Illuminated

Extremos de hoy

Máximos del estado Bajos del estado

Community

WunderPhotos

Upload Photos

1,773,708 ¡fotos cargadas!

WunderBlogs® & News

Nearby

Calidad del aire

  Calidad del aire Índice AQ Contaminante
Not available.

Grosos de nieve

Estación Profundido Altura

Actividad de terremotos

Ciudad Distance Mag. Tiempo y dato
Magnitud mínima muestra es 2,5.

Temperaturas de aguas costeras

Lugar Temperatura

Estaciones meteorológicas cercanas